Vitsentzos Kornaros — SXNX — position and weather

sailwx.info

Track history (hours):
 
Tides and Currents Weather Stations Pressure Air Temp Water Temp Dewpoint Dewpoint Depression Visibility Wind Speed Wind Dir Waves Ship Positions

Vitsentzos Kornaros

Last reported at 2015-Jul-31 10:33 UTC. Time now 2015-Jul-31 11:23 UTC.
Position N 37°57' E 023°38'.

Length 128 m; draft 4.5 m.

Type: Passenger vessel. MMSI: 239311000.

Date/timePositionNaut miles runAvg speedWind from/ knotsBaromVisibWave heightAir tempDewpointWater temp
2015-Jul-31 10:33N 37°57' E 023°38'0 0.0
2015-Jul-31 09:33N 37°57' E 023°38'0 0.0
2015-Jul-31 08:33N 37°57' E 023°38'0 0.0
2015-Jul-31 07:33N 37°57' E 023°38'0 0.0
2015-Jul-31 06:33N 37°57' E 023°38'0 0.0
2015-Jul-31 05:33N 37°57' E 023°38'0 0.0
2015-Jul-31 04:33N 37°57' E 023°38'0 0.1
2015-Jul-31 03:33N 37°57' E 023°38'1110.7
2015-Jul-31 02:33N 37°47' E 023°43'1313.4
2015-Jul-31 01:33N 37°33' E 023°42'1515.1
2015-Jul-31 00:33N 37°19' E 023°36'1514.6
2015-Jul-30 23:31N 37°05' E 023°30'1414.4
2015-Jul-30 22:32N 36°51' E 023°24'5410.2
2015-Jul-30 17:12N 35°57' E 023°23'29 7.2
2015-Jul-30 13:09N 35°31' E 023°38'0 0.0
2015-Jul-30 10:33N 35°31' E 023°38'14 0.9
2015-Jul-29 19:30N 35°44' E 023°32'1514.6
2015-Jul-29 18:28N 35°54' E 023°17'4 0.3
2015-Jul-29 07:19N 35°57' E 023°17'5 6.6
2015-Jul-29 06:33N 35°53' E 023°20'1614.8
2015-Jul-29 05:29N 35°42' E 023°33'12 1.5
2015-Jul-28 21:33N 35°31' E 023°38'0 0.0
2015-Jul-28 20:33N 35°31' E 023°38'35 1.7
2015-Jul-28 00:05N 36°02' E 023°19'24 8.5
2015-Jul-27 21:14N 36°26' E 023°13'1514.0
2015-Jul-27 20:09N 36°40' E 023°20'914.2
2015-Jul-27 19:32N 36°48' E 023°23'1414.2
2015-Jul-27 18:33N 37°02' E 023°28'1413.7
2015-Jul-27 17:33N 37°14' E 023°34'1413.9
2015-Jul-27 16:33N 37°28' E 023°38'1413.8
2015-Jul-27 15:33N 37°42' E 023°41'1313.5
2015-Jul-27 14:33N 37°54' E 023°37'3 2.6
2015-Jul-27 13:33N 37°57' E 023°38'0 0.0
2015-Jul-27 12:33N 37°57' E 023°38'0 0.0
2015-Jul-27 11:33N 37°57' E 023°38'0 0.0
2015-Jul-27 10:33N 37°57' E 023°38'0 0.0
2015-Jul-27 09:33N 37°57' E 023°38'0 0.0
2015-Jul-27 08:34N 37°57' E 023°38'0 0.0
2015-Jul-27 07:34N 37°57' E 023°38'0 0.0
2015-Jul-27 06:33N 37°57' E 023°38'0 0.0
2015-Jul-27 05:32N 37°57' E 023°38'0 0.0
2015-Jul-27 04:33N 37°57' E 023°38'1 1.0
2015-Jul-27 03:33N 37°56' E 023°37'1313.0
2015-Jul-27 02:33N 37°44' E 023°43'1312.6
2015-Jul-27 01:33N 37°32' E 023°41'1313.3
2015-Jul-27 00:33N 37°19' E 023°36'1313.3
2015-Jul-26 23:33N 37°06' E 023°31'1413.3
2015-Jul-26 22:32N 36°54' E 023°24'5210.2
2015-Jul-26 17:28N 36°02' E 023°15'10 8.1
2015-Jul-26 16:11N 35°53' E 023°21'813.4
2015-Jul-26 15:34N 35°47' E 023°28'31 1.3
2015-Jul-25 15:27N 36°14' E 023°09'1112.7
2015-Jul-25 14:33N 36°05' E 023°17'1312.7
2015-Jul-25 13:33N 35°54' E 023°26'1313.3
2015-Jul-25 12:33N 35°43' E 023°34'35 2.7
2015-Jul-24 23:33N 36°13' E 023°12'40 9.5
2015-Jul-24 19:18N 36°52' E 023°24'1114.2
2015-Jul-24 18:34N 37°02' E 023°28'1414.0
2015-Jul-24 17:34N 37°15' E 023°34'1313.5
2015-Jul-24 16:33N 37°28' E 023°39'1313.3
2015-Jul-24 15:33N 37°41' E 023°41'1313.4
2015-Jul-24 14:33N 37°54' E 023°37'3 3.0
2015-Jul-24 13:34N 37°57' E 023°38'0 0.0
2015-Jul-24 12:34N 37°57' E 023°38'0 0.0
2015-Jul-24 11:33N 37°57' E 023°38'0 0.0
2015-Jul-24 10:33N 37°57' E 023°38'0 0.0
2015-Jul-24 09:34N 37°57' E 023°38'0 0.0
2015-Jul-24 08:34N 37°57' E 023°38'0 0.0
2015-Jul-24 07:33N 37°57' E 023°38'0 0.0
2015-Jul-24 06:33N 37°57' E 023°38'0 0.0
2015-Jul-24 05:34N 37°57' E 023°38'0 0.0
2015-Jul-24 04:34N 37°57' E 023°38'0 0.0
2015-Jul-24 03:33N 37°57' E 023°38'8 7.6
2015-Jul-24 02:33N 37°49' E 023°41'1414.1
2015-Jul-24 01:33N 37°36' E 023°44'1514.8
2015-Jul-24 00:33N 37°22' E 023°37'1514.7
2015-Jul-23 23:33N 37°08' E 023°30'1614.5
2015-Jul-23 22:26N 36°53' E 023°24'1314.2
2015-Jul-23 21:32N 36°40' E 023°19'61 1.5
2015-Jul-22 05:33N 35°41' E 023°34'  
Track history (hours):
 
Tides and Currents Weather Stations Pressure Air Temp Water Temp Dewpoint Dewpoint Depression Visibility Wind Speed Wind Dir Waves Ship Positions

Vitsentzos Kornaros

Last reported at 2015-Jul-31 10:33 UTC. Time now 2015-Jul-31 11:23 UTC.
Position N 37°57' E 023°38'.

Length 128 m; draft 4.5 m.

Type: Passenger vessel. MMSI: 239311000.

Date/timePositionNaut miles runAvg speedWind from/ knotsBaromVisibWave heightAir tempDewpointWater temp
2015-Jul-31 10:33N 37°57' E 023°38'0 0.0
2015-Jul-31 09:33N 37°57' E 023°38'0 0.0
2015-Jul-31 08:33N 37°57' E 023°38'0 0.0
2015-Jul-31 07:33N 37°57' E 023°38'0 0.0
2015-Jul-31 06:33N 37°57' E 023°38'0 0.0
2015-Jul-31 05:33N 37°57' E 023°38'0 0.0
2015-Jul-31 04:33N 37°57' E 023°38'0 0.1
2015-Jul-31 03:33N 37°57' E 023°38'1110.7
2015-Jul-31 02:33N 37°47' E 023°43'1313.4
2015-Jul-31 01:33N 37°33' E 023°42'1515.1
2015-Jul-31 00:33N 37°19' E 023°36'1514.6
2015-Jul-30 23:31N 37°05' E 023°30'1414.4
2015-Jul-30 22:32N 36°51' E 023°24'5410.2
2015-Jul-30 17:12N 35°57' E 023°23'29 7.2
2015-Jul-30 13:09N 35°31' E 023°38'0 0.0
2015-Jul-30 10:33N 35°31' E 023°38'14 0.9
2015-Jul-29 19:30N 35°44' E 023°32'1514.6
2015-Jul-29 18:28N 35°54' E 023°17'4 0.3
2015-Jul-29 07:19N 35°57' E 023°17'5 6.6
2015-Jul-29 06:33N 35°53' E 023°20'1614.8
2015-Jul-29 05:29N 35°42' E 023°33'12 1.5
2015-Jul-28 21:33N 35°31' E 023°38'0 0.0
2015-Jul-28 20:33N 35°31' E 023°38'35 1.7
2015-Jul-28 00:05N 36°02' E 023°19'24 8.5
2015-Jul-27 21:14N 36°26' E 023°13'1514.0
2015-Jul-27 20:09N 36°40' E 023°20'914.2
2015-Jul-27 19:32N 36°48' E 023°23'1414.2
2015-Jul-27 18:33N 37°02' E 023°28'1413.7
2015-Jul-27 17:33N 37°14' E 023°34'1413.9
2015-Jul-27 16:33N 37°28' E 023°38'1413.8
2015-Jul-27 15:33N 37°42' E 023°41'1313.5
2015-Jul-27 14:33N 37°54' E 023°37'3 2.6
2015-Jul-27 13:33N 37°57' E 023°38'0 0.0
2015-Jul-27 12:33N 37°57' E 023°38'0 0.0
2015-Jul-27 11:33N 37°57' E 023°38'0 0.0
2015-Jul-27 10:33N 37°57' E 023°38'0 0.0
2015-Jul-27 09:33N 37°57' E 023°38'0 0.0
2015-Jul-27 08:34N 37°57' E 023°38'0 0.0
2015-Jul-27 07:34N 37°57' E 023°38'0 0.0
2015-Jul-27 06:33N 37°57' E 023°38'0 0.0
2015-Jul-27 05:32N 37°57' E 023°38'0 0.0
2015-Jul-27 04:33N 37°57' E 023°38'1 1.0
2015-Jul-27 03:33N 37°56' E 023°37'1313.0
2015-Jul-27 02:33N 37°44' E 023°43'1312.6
2015-Jul-27 01:33N 37°32' E 023°41'1313.3
2015-Jul-27 00:33N 37°19' E 023°36'1313.3
2015-Jul-26 23:33N 37°06' E 023°31'1413.3
2015-Jul-26 22:32N 36°54' E 023°24'5210.2
2015-Jul-26 17:28N 36°02' E 023°15'10 8.1
2015-Jul-26 16:11N 35°53' E 023°21'813.4
2015-Jul-26 15:34N 35°47' E 023°28'31 1.3
2015-Jul-25 15:27N 36°14' E 023°09'1112.7
2015-Jul-25 14:33N 36°05' E 023°17'1312.7
2015-Jul-25 13:33N 35°54' E 023°26'1313.3
2015-Jul-25 12:33N 35°43' E 023°34'35 2.7
2015-Jul-24 23:33N 36°13' E 023°12'40 9.5
2015-Jul-24 19:18N 36°52' E 023°24'1114.2
2015-Jul-24 18:34N 37°02' E 023°28'1414.0
2015-Jul-24 17:34N 37°15' E 023°34'1313.5
2015-Jul-24 16:33N 37°28' E 023°39'1313.3
2015-Jul-24 15:33N 37°41' E 023°41'1313.4
2015-Jul-24 14:33N 37°54' E 023°37'3 3.0
2015-Jul-24 13:34N 37°57' E 023°38'0 0.0
2015-Jul-24 12:34N 37°57' E 023°38'0 0.0
2015-Jul-24 11:33N 37°57' E 023°38'0 0.0
2015-Jul-24 10:33N 37°57' E 023°38'0 0.0
2015-Jul-24 09:34N 37°57' E 023°38'0 0.0
2015-Jul-24 08:34N 37°57' E 023°38'0 0.0
2015-Jul-24 07:33N 37°57' E 023°38'0 0.0
2015-Jul-24 06:33N 37°57' E 023°38'0 0.0
2015-Jul-24 05:34N 37°57' E 023°38'0 0.0
2015-Jul-24 04:34N 37°57' E 023°38'0 0.0
2015-Jul-24 03:33N 37°57' E 023°38'8 7.6
2015-Jul-24 02:33N 37°49' E 023°41'1414.1
2015-Jul-24 01:33N 37°36' E 023°44'1514.8
2015-Jul-24 00:33N 37°22' E 023°37'1514.7
2015-Jul-23 23:33N 37°08' E 023°30'1614.5
2015-Jul-23 22:26N 36°53' E 023°24'1314.2
2015-Jul-23 21:32N 36°40' E 023°19'61 1.5
2015-Jul-22 05:33N 35°41' E 023°34'  

Dump ship's entire track history